sensor_id;sensor_type;location;lat;lon;timestamp;noise_LAeq;noise_LA_min;noise_LA_max;noise_LA01;noise_LA95
77135;Laerm;48586;50.122;18.972;2023-05-24T00:01:48;38.53;34.04;50.80;;
77135;Laerm;48586;50.122;18.972;2023-05-24T00:04:00;42.17;34.12;53.66;;
77135;Laerm;48586;50.122;18.972;2023-05-24T00:06:06;36.02;34.13;39.11;;
77135;Laerm;48586;50.122;18.972;2023-05-24T00:08:11;42.23;34.34;55.62;;
77135;Laerm;48586;50.122;18.972;2023-05-24T00:10:16;37.31;34.28;45.40;;
77135;Laerm;48586;50.122;18.972;2023-05-24T00:12:22;40.00;33.84;51.09;;
77135;Laerm;48586;50.122;18.972;2023-05-24T00:14:27;41.57;34.55;52.11;;
77135;Laerm;48586;50.122;18.972;2023-05-24T00:16:32;41.09;34.54;52.05;;
77135;Laerm;48586;50.122;18.972;2023-05-24T00:18:38;40.41;34.29;50.67;;
77135;Laerm;48586;50.122;18.972;2023-05-24T00:20:50;35.54;34.05;40.56;;
77135;Laerm;48586;50.122;18.972;2023-05-24T00:22:58;35.96;34.21;40.09;;
77135;Laerm;48586;50.122;18.972;2023-05-24T00:25:04;35.85;34.06;40.08;;
77135;Laerm;48586;50.122;18.972;2023-05-24T00:27:10;40.07;34.14;50.68;;
77135;Laerm;48586;50.122;18.972;2023-05-24T00:29:15;38.55;34.38;50.75;;
77135;Laerm;48586;50.122;18.972;2023-05-24T00:31:21;36.58;34.06;49.56;;
77135;Laerm;48586;50.122;18.972;2023-05-24T00:33:27;36.91;34.07;55.69;;
77135;Laerm;48586;50.122;18.972;2023-05-24T00:35:32;42.54;34.63;50.21;;
77135;Laerm;48586;50.122;18.972;2023-05-24T00:37:39;50.95;35.11;63.01;;
77135;Laerm;48586;50.122;18.972;2023-05-24T00:39:46;36.10;34.37;39.04;;
77135;Laerm;48586;50.122;18.972;2023-05-24T00:41:52;35.99;33.94;40.75;;
77135;Laerm;48586;50.122;18.972;2023-05-24T00:43:59;38.58;34.60;48.43;;
77135;Laerm;48586;50.122;18.972;2023-05-24T00:46:27;35.85;34.13;45.21;;
77135;Laerm;48586;50.122;18.972;2023-05-24T00:48:31;35.97;34.34;43.75;;
77135;Laerm;48586;50.122;18.972;2023-05-24T00:50:38;36.24;34.39;45.00;;
77135;Laerm;48586;50.122;18.972;2023-05-24T00:52:49;39.52;34.72;53.53;;
77135;Laerm;48586;50.122;18.972;2023-05-24T00:54:55;36.19;34.14;41.35;;
77135;Laerm;48586;50.122;18.972;2023-05-24T00:57:01;41.67;34.86;51.89;;
77135;Laerm;48586;50.122;18.972;2023-05-24T00:59:07;36.26;34.61;39.55;;
77135;Laerm;48586;50.122;18.972;2023-05-24T01:01:13;36.48;34.48;48.67;;
77135;Laerm;48586;50.122;18.972;2023-05-24T01:03:19;41.98;34.42;66.88;;
77135;Laerm;48586;50.122;18.972;2023-05-24T01:05:23;39.27;34.45;62.64;;
77135;Laerm;48586;50.122;18.972;2023-05-24T01:07:48;37.62;34.30;57.35;;
77135;Laerm;48586;50.122;18.972;2023-05-24T01:10:11;36.34;34.27;45.80;;
77135;Laerm;48586;50.122;18.972;2023-05-24T01:12:31;36.25;33.99;49.72;;
77135;Laerm;48586;50.122;18.972;2023-05-24T01:14:57;36.48;34.50;39.91;;
77135;Laerm;48586;50.122;18.972;2023-05-24T01:17:16;36.10;34.22;39.16;;
77135;Laerm;48586;50.122;18.972;2023-05-24T01:19:52;41.13;34.53;61.05;;
77135;Laerm;48586;50.122;18.972;2023-05-24T01:22:16;36.02;33.86;41.84;;
77135;Laerm;48586;50.122;18.972;2023-05-24T01:24:38;37.81;33.99;48.03;;
77135;Laerm;48586;50.122;18.972;2023-05-24T01:27:17;38.65;34.13;53.42;;
77135;Laerm;48586;50.122;18.972;2023-05-24T01:29:40;38.18;34.20;52.51;;
77135;Laerm;48586;50.122;18.972;2023-05-24T01:32:02;36.54;34.10;55.62;;
77135;Laerm;48586;50.122;18.972;2023-05-24T01:34:24;36.00;34.01;44.22;;
77135;Laerm;48586;50.122;18.972;2023-05-24T01:36:43;36.84;34.10;45.82;;
77135;Laerm;48586;50.122;18.972;2023-05-24T01:39:03;40.09;34.06;52.97;;
77135;Laerm;48586;50.122;18.972;2023-05-24T01:41:39;37.82;33.97;48.27;;
77135;Laerm;48586;50.122;18.972;2023-05-24T01:44:09;36.27;34.04;45.81;;
77135;Laerm;48586;50.122;18.972;2023-05-24T01:46:28;37.17;34.63;47.43;;
77135;Laerm;48586;50.122;18.972;2023-05-24T01:48:56;41.72;34.87;54.36;;
77135;Laerm;48586;50.122;18.972;2023-05-24T01:51:07;39.20;33.90;53.02;;
77135;Laerm;48586;50.122;18.972;2023-05-24T01:53:18;36.07;33.63;46.09;;
77135;Laerm;48586;50.122;18.972;2023-05-24T01:55:26;36.65;34.61;43.79;;
77135;Laerm;48586;50.122;18.972;2023-05-24T01:57:37;36.62;34.16;46.32;;
77135;Laerm;48586;50.122;18.972;2023-05-24T01:59:50;40.06;34.05;51.46;;
77135;Laerm;48586;50.122;18.972;2023-05-24T02:01:56;36.78;34.92;44.60;;
77135;Laerm;48586;50.122;18.972;2023-05-24T02:04:03;40.87;34.86;52.97;;
77135;Laerm;48586;50.122;18.972;2023-05-24T02:06:08;41.67;34.47;56.77;;
77135;Laerm;48586;50.122;18.972;2023-05-24T02:08:14;39.16;34.95;63.84;;
77135;Laerm;48586;50.122;18.972;2023-05-24T02:10:20;39.59;34.68;48.45;;
77135;Laerm;48586;50.122;18.972;2023-05-24T02:12:24;36.76;34.56;47.46;;
77135;Laerm;48586;50.122;18.972;2023-05-24T02:14:28;37.09;34.82;46.93;;
77135;Laerm;48586;50.122;18.972;2023-05-24T02:16:38;41.07;34.91;50.64;;
77135;Laerm;48586;50.122;18.972;2023-05-24T02:18:43;41.85;35.13;54.15;;
77135;Laerm;48586;50.122;18.972;2023-05-24T02:20:49;37.75;34.61;46.63;;
77135;Laerm;48586;50.122;18.972;2023-05-24T02:22:54;38.07;34.68;45.64;;
77135;Laerm;48586;50.122;18.972;2023-05-24T02:25:01;36.70;34.49;48.57;;
77135;Laerm;48586;50.122;18.972;2023-05-24T02:27:06;37.08;35.20;42.17;;
77135;Laerm;48586;50.122;18.972;2023-05-24T02:29:11;41.04;35.10;58.78;;
77135;Laerm;48586;50.122;18.972;2023-05-24T02:31:16;40.18;34.98;51.43;;
77135;Laerm;48586;50.122;18.972;2023-05-24T02:33:23;39.52;35.18;59.83;;
77135;Laerm;48586;50.122;18.972;2023-05-24T02:35:31;44.42;36.04;59.43;;
77135;Laerm;48586;50.122;18.972;2023-05-24T02:37:36;37.95;34.73;53.61;;
77135;Laerm;48586;50.122;18.972;2023-05-24T02:39:41;36.87;34.19;43.37;;
77135;Laerm;48586;50.122;18.972;2023-05-24T02:41:46;37.42;34.90;48.10;;
77135;Laerm;48586;50.122;18.972;2023-05-24T02:43:51;41.78;36.20;49.07;;
77135;Laerm;48586;50.122;18.972;2023-05-24T02:45:55;43.29;36.35;53.99;;
77135;Laerm;48586;50.122;18.972;2023-05-24T02:48:15;44.63;37.17;53.51;;
77135;Laerm;48586;50.122;18.972;2023-05-24T02:50:38;42.88;35.85;51.88;;
77135;Laerm;48586;50.122;18.972;2023-05-24T02:52:57;43.36;36.41;59.96;;
77135;Laerm;48586;50.122;18.972;2023-05-24T02:55:18;43.49;36.74;55.89;;
77135;Laerm;48586;50.122;18.972;2023-05-24T02:57:37;47.36;36.68;56.51;;
77135;Laerm;48586;50.122;18.972;2023-05-24T02:59:58;45.93;36.40;54.39;;
77135;Laerm;48586;50.122;18.972;2023-05-24T03:02:19;48.58;38.18;58.24;;
77135;Laerm;48586;50.122;18.972;2023-05-24T03:04:38;41.68;35.38;53.58;;
77135;Laerm;48586;50.122;18.972;2023-05-24T03:07:04;40.33;35.56;48.97;;
77135;Laerm;48586;50.122;18.972;2023-05-24T03:09:23;44.46;35.98;59.61;;
77135;Laerm;48586;50.122;18.972;2023-05-24T03:11:43;44.53;36.10;59.25;;
77135;Laerm;48586;50.122;18.972;2023-05-24T03:14:03;46.19;36.41;55.13;;
77135;Laerm;48586;50.122;18.972;2023-05-24T03:16:25;44.94;35.78;53.48;;
77135;Laerm;48586;50.122;18.972;2023-05-24T03:18:45;50.98;42.46;59.37;;
77135;Laerm;48586;50.122;18.972;2023-05-24T03:21:05;52.35;36.19;65.80;;
77135;Laerm;48586;50.122;18.972;2023-05-24T03:23:28;48.20;36.82;59.17;;
77135;Laerm;48586;50.122;18.972;2023-05-24T03:25:47;46.79;36.23;60.01;;
77135;Laerm;48586;50.122;18.972;2023-05-24T03:28:06;48.21;35.92;62.34;;
77135;Laerm;48586;50.122;18.972;2023-05-24T03:30:26;47.58;36.33;56.25;;
77135;Laerm;48586;50.122;18.972;2023-05-24T03:32:48;45.52;37.37;54.45;;
77135;Laerm;48586;50.122;18.972;2023-05-24T03:35:08;48.38;36.23;65.55;;
77135;Laerm;48586;50.122;18.972;2023-05-24T03:37:14;50.00;37.25;58.22;;
77135;Laerm;48586;50.122;18.972;2023-05-24T03:39:22;45.84;37.43;54.90;;
77135;Laerm;48586;50.122;18.972;2023-05-24T03:41:49;48.99;36.65;56.35;;
77135;Laerm;48586;50.122;18.972;2023-05-24T03:43:54;48.37;36.96;60.01;;
77135;Laerm;48586;50.122;18.972;2023-05-24T03:45:58;46.20;37.98;60.07;;
77135;Laerm;48586;50.122;18.972;2023-05-24T03:48:03;47.46;36.59;56.69;;
77135;Laerm;48586;50.122;18.972;2023-05-24T03:50:09;47.42;37.95;56.65;;
77135;Laerm;48586;50.122;18.972;2023-05-24T03:52:14;47.08;35.55;56.09;;
77135;Laerm;48586;50.122;18.972;2023-05-24T03:54:21;46.10;36.29;57.17;;
77135;Laerm;48586;50.122;18.972;2023-05-24T03:56:27;47.17;36.36;56.50;;
77135;Laerm;48586;50.122;18.972;2023-05-24T03:58:31;42.85;35.84;54.26;;
77135;Laerm;48586;50.122;18.972;2023-05-24T04:00:51;48.96;37.67;61.46;;
77135;Laerm;48586;50.122;18.972;2023-05-24T04:03:11;50.10;39.13;63.69;;
77135;Laerm;48586;50.122;18.972;2023-05-24T04:05:30;46.71;34.96;59.38;;
77135;Laerm;48586;50.122;18.972;2023-05-24T04:07:49;53.58;37.60;70.28;;
77135;Laerm;48586;50.122;18.972;2023-05-24T04:09:57;49.02;38.19;59.24;;
77135;Laerm;48586;50.122;18.972;2023-05-24T04:12:01;51.27;39.35;60.94;;
77135;Laerm;48586;50.122;18.972;2023-05-24T04:14:06;48.25;36.91;63.40;;
77135;Laerm;48586;50.122;18.972;2023-05-24T04:16:11;48.22;37.07;57.09;;
77135;Laerm;48586;50.122;18.972;2023-05-24T04:18:16;48.27;37.52;55.52;;
77135;Laerm;48586;50.122;18.972;2023-05-24T04:20:21;50.20;39.07;64.64;;
77135;Laerm;48586;50.122;18.972;2023-05-24T04:22:29;50.03;38.00;68.89;;
77135;Laerm;48586;50.122;18.972;2023-05-24T04:24:33;52.29;39.72;76.48;;
77135;Laerm;48586;50.122;18.972;2023-05-24T04:26:40;55.16;43.73;77.34;;
77135;Laerm;48586;50.122;18.972;2023-05-24T04:28:45;52.11;40.58;72.95;;
77135;Laerm;48586;50.122;18.972;2023-05-24T04:30:50;52.52;41.17;67.08;;
77135;Laerm;48586;50.122;18.972;2023-05-24T04:32:56;51.84;39.53;66.25;;
77135;Laerm;48586;50.122;18.972;2023-05-24T04:35:04;57.35;43.06;73.07;;
77135;Laerm;48586;50.122;18.972;2023-05-24T04:37:09;49.94;38.90;68.83;;
77135;Laerm;48586;50.122;18.972;2023-05-24T04:39:13;48.36;39.92;62.77;;
77135;Laerm;48586;50.122;18.972;2023-05-24T04:41:19;51.96;43.19;63.61;;
77135;Laerm;48586;50.122;18.972;2023-05-24T04:43:27;51.60;43.51;68.74;;
77135;Laerm;48586;50.122;18.972;2023-05-24T04:45:31;53.37;46.03;67.87;;
77135;Laerm;48586;50.122;18.972;2023-05-24T04:47:36;55.39;50.51;62.26;;
77135;Laerm;48586;50.122;18.972;2023-05-24T04:49:40;54.21;47.43;65.76;;
77135;Laerm;48586;50.122;18.972;2023-05-24T04:51:45;51.95;42.28;58.77;;
77135;Laerm;48586;50.122;18.972;2023-05-24T04:53:50;51.23;41.63;62.23;;
77135;Laerm;48586;50.122;18.972;2023-05-24T04:55:54;51.94;42.61;58.53;;
77135;Laerm;48586;50.122;18.972;2023-05-24T04:58:00;52.66;44.69;63.77;;
77135;Laerm;48586;50.122;18.972;2023-05-24T05:00:10;55.12;45.06;64.88;;
77135;Laerm;48586;50.122;18.972;2023-05-24T05:02:31;52.74;45.66;62.42;;
77135;Laerm;48586;50.122;18.972;2023-05-24T05:04:36;50.92;43.04;65.23;;
77135;Laerm;48586;50.122;18.972;2023-05-24T05:06:43;52.34;41.59;69.43;;
77135;Laerm;48586;50.122;18.972;2023-05-24T05:08:48;52.49;41.56;66.01;;
77135;Laerm;48586;50.122;18.972;2023-05-24T05:10:56;52.66;46.02;70.22;;
77135;Laerm;48586;50.122;18.972;2023-05-24T05:13:01;54.45;45.75;70.55;;
77135;Laerm;48586;50.122;18.972;2023-05-24T05:15:10;54.33;46.40;69.88;;
77135;Laerm;48586;50.122;18.972;2023-05-24T05:17:15;55.10;46.06;69.26;;
77135;Laerm;48586;50.122;18.972;2023-05-24T05:19:35;54.75;47.83;67.66;;
77135;Laerm;48586;50.122;18.972;2023-05-24T05:21:41;55.00;48.36;64.51;;
77135;Laerm;48586;50.122;18.972;2023-05-24T05:23:45;53.16;44.81;59.96;;
77135;Laerm;48586;50.122;18.972;2023-05-24T05:25:50;56.49;47.95;69.33;;
77135;Laerm;48586;50.122;18.972;2023-05-24T05:27:56;54.36;45.43;66.64;;
77135;Laerm;48586;50.122;18.972;2023-05-24T05:30:00;52.57;44.43;65.69;;
77135;Laerm;48586;50.122;18.972;2023-05-24T05:32:08;55.55;46.83;74.72;;
77135;Laerm;48586;50.122;18.972;2023-05-24T05:34:14;57.64;43.95;79.37;;
77135;Laerm;48586;50.122;18.972;2023-05-24T05:36:35;55.58;43.17;70.52;;
77135;Laerm;48586;50.122;18.972;2023-05-24T05:38:58;54.38;44.05;70.10;;
77135;Laerm;48586;50.122;18.972;2023-05-24T05:41:19;54.13;46.55;72.15;;
77135;Laerm;48586;50.122;18.972;2023-05-24T05:43:24;54.76;45.82;66.85;;
77135;Laerm;48586;50.122;18.972;2023-05-24T05:45:29;61.06;41.76;76.92;;
77135;Laerm;48586;50.122;18.972;2023-05-24T05:47:37;68.47;48.45;82.25;;
77135;Laerm;48586;50.122;18.972;2023-05-24T05:49:42;54.35;45.81;71.15;;
77135;Laerm;48586;50.122;18.972;2023-05-24T05:51:46;53.07;45.53;64.21;;
77135;Laerm;48586;50.122;18.972;2023-05-24T05:53:53;55.11;44.09;67.79;;
77135;Laerm;48586;50.122;18.972;2023-05-24T05:55:58;57.37;50.26;67.79;;
77135;Laerm;48586;50.122;18.972;2023-05-24T05:58:03;54.71;47.16;65.49;;
77135;Laerm;48586;50.122;18.972;2023-05-24T06:00:11;54.65;47.28;64.91;;
77135;Laerm;48586;50.122;18.972;2023-05-24T06:02:17;55.48;49.63;69.82;;
77135;Laerm;48586;50.122;18.972;2023-05-24T06:04:35;55.32;47.85;73.29;;
77135;Laerm;48586;50.122;18.972;2023-05-24T06:06:40;55.51;47.46;68.97;;
77135;Laerm;48586;50.122;18.972;2023-05-24T06:08:46;54.95;47.98;67.40;;
77135;Laerm;48586;50.122;18.972;2023-05-24T06:10:51;54.61;46.78;65.52;;
77135;Laerm;48586;50.122;18.972;2023-05-24T06:12:55;52.36;44.58;61.15;;
77135;Laerm;48586;50.122;18.972;2023-05-24T06:15:02;54.92;48.93;64.89;;
77135;Laerm;48586;50.122;18.972;2023-05-24T06:17:08;52.43;45.86;64.99;;
77135;Laerm;48586;50.122;18.972;2023-05-24T06:19:13;52.70;44.11;63.34;;
77135;Laerm;48586;50.122;18.972;2023-05-24T06:21:21;52.92;45.70;58.52;;
77135;Laerm;48586;50.122;18.972;2023-05-24T06:23:27;52.01;44.31;59.11;;
77135;Laerm;48586;50.122;18.972;2023-05-24T06:25:32;50.25;45.45;60.55;;
77135;Laerm;48586;50.122;18.972;2023-05-24T06:27:40;52.38;44.66;67.76;;
77135;Laerm;48586;50.122;18.972;2023-05-24T06:29:44;51.96;44.27;69.75;;
77135;Laerm;48586;50.122;18.972;2023-05-24T06:31:50;52.77;47.08;61.78;;
77135;Laerm;48586;50.122;18.972;2023-05-24T06:33:55;52.95;45.12;57.50;;
77135;Laerm;48586;50.122;18.972;2023-05-24T06:36:00;52.46;45.77;58.91;;
77135;Laerm;48586;50.122;18.972;2023-05-24T06:38:07;51.75;44.76;58.09;;
77135;Laerm;48586;50.122;18.972;2023-05-24T06:40:14;52.02;44.99;62.42;;
77135;Laerm;48586;50.122;18.972;2023-05-24T06:42:19;52.65;45.16;65.91;;
77135;Laerm;48586;50.122;18.972;2023-05-24T06:44:40;52.78;47.72;62.69;;
77135;Laerm;48586;50.122;18.972;2023-05-24T06:47:00;55.66;43.77;65.81;;
77135;Laerm;48586;50.122;18.972;2023-05-24T06:49:21;52.17;41.76;64.52;;
77135;Laerm;48586;50.122;18.972;2023-05-24T06:51:43;53.06;44.00;64.72;;
77135;Laerm;48586;50.122;18.972;2023-05-24T06:53:52;53.78;44.67;69.18;;
77135;Laerm;48586;50.122;18.972;2023-05-24T06:56:01;52.78;44.11;70.76;;
77135;Laerm;48586;50.122;18.972;2023-05-24T06:58:06;51.44;41.80;58.35;;
77135;Laerm;48586;50.122;18.972;2023-05-24T07:00:17;48.44;42.54;58.03;;
77135;Laerm;48586;50.122;18.972;2023-05-24T07:02:22;50.24;42.59;63.27;;
77135;Laerm;48586;50.122;18.972;2023-05-24T07:04:29;52.46;40.34;74.07;;
77135;Laerm;48586;50.122;18.972;2023-05-24T07:06:35;51.43;42.78;62.47;;
77135;Laerm;48586;50.122;18.972;2023-05-24T07:08:41;51.60;40.69;63.36;;
77135;Laerm;48586;50.122;18.972;2023-05-24T07:10:49;52.18;44.77;59.94;;
77135;Laerm;48586;50.122;18.972;2023-05-24T07:12:54;51.01;41.74;58.91;;
77135;Laerm;48586;50.122;18.972;2023-05-24T07:14:59;54.99;45.83;63.05;;
77135;Laerm;48586;50.122;18.972;2023-05-24T07:17:04;51.27;41.72;60.10;;
77135;Laerm;48586;50.122;18.972;2023-05-24T07:19:09;52.00;45.31;59.20;;
77135;Laerm;48586;50.122;18.972;2023-05-24T07:21:14;51.39;45.56;56.32;;
77135;Laerm;48586;50.122;18.972;2023-05-24T07:23:20;50.66;44.26;60.04;;
77135;Laerm;48586;50.122;18.972;2023-05-24T07:25:25;52.77;46.54;58.59;;
77135;Laerm;48586;50.122;18.972;2023-05-24T07:27:33;54.43;47.03;70.90;;
77135;Laerm;48586;50.122;18.972;2023-05-24T07:29:38;53.48;46.83;61.85;;
77135;Laerm;48586;50.122;18.972;2023-05-24T07:31:44;53.17;44.79;59.96;;
77135;Laerm;48586;50.122;18.972;2023-05-24T07:33:50;53.19;46.59;61.67;;
77135;Laerm;48586;50.122;18.972;2023-05-24T07:35:54;53.63;46.83;64.10;;
77135;Laerm;48586;50.122;18.972;2023-05-24T07:38:00;51.15;45.31;57.54;;
77135;Laerm;48586;50.122;18.972;2023-05-24T07:40:07;52.46;46.30;64.94;;
77135;Laerm;48586;50.122;18.972;2023-05-24T07:42:12;50.52;40.37;65.39;;
77135;Laerm;48586;50.122;18.972;2023-05-24T07:44:20;52.16;45.37;58.09;;
77135;Laerm;48586;50.122;18.972;2023-05-24T07:46:25;54.29;46.57;70.72;;
77135;Laerm;48586;50.122;18.972;2023-05-24T07:48:31;53.72;43.97;70.64;;
77135;Laerm;48586;50.122;18.972;2023-05-24T07:50:37;54.86;47.04;68.04;;
77135;Laerm;48586;50.122;18.972;2023-05-24T07:52:42;55.05;49.15;67.73;;
77135;Laerm;48586;50.122;18.972;2023-05-24T07:54:47;56.67;47.32;73.08;;
77135;Laerm;48586;50.122;18.972;2023-05-24T07:56:53;55.61;46.64;70.59;;
77135;Laerm;48586;50.122;18.972;2023-05-24T07:58:58;54.29;45.61;68.81;;
77135;Laerm;48586;50.122;18.972;2023-05-24T08:01:07;52.19;44.31;63.55;;
77135;Laerm;48586;50.122;18.972;2023-05-24T08:03:13;51.69;44.77;64.99;;
77135;Laerm;48586;50.122;18.972;2023-05-24T08:05:19;52.79;44.93;69.61;;
77135;Laerm;48586;50.122;18.972;2023-05-24T08:07:24;52.34;43.66;61.40;;
77135;Laerm;48586;50.122;18.972;2023-05-24T08:09:31;52.68;46.16;63.22;;
77135;Laerm;48586;50.122;18.972;2023-05-24T08:11:38;50.94;43.80;63.97;;
77135;Laerm;48586;50.122;18.972;2023-05-24T08:13:43;53.06;44.17;73.01;;
77135;Laerm;48586;50.122;18.972;2023-05-24T08:15:50;55.18;45.56;77.18;;
77135;Laerm;48586;50.122;18.972;2023-05-24T08:18:12;52.43;44.48;68.71;;
77135;Laerm;48586;50.122;18.972;2023-05-24T08:20:17;52.24;42.79;62.22;;
77135;Laerm;48586;50.122;18.972;2023-05-24T08:22:23;50.87;44.25;64.12;;
77135;Laerm;48586;50.122;18.972;2023-05-24T08:24:29;51.21;45.16;59.08;;
77135;Laerm;48586;50.122;18.972;2023-05-24T08:26:34;55.44;49.87;66.51;;
77135;Laerm;48586;50.122;18.972;2023-05-24T08:28:40;52.86;45.38;66.01;;
77135;Laerm;48586;50.122;18.972;2023-05-24T08:30:45;53.73;43.35;66.09;;
77135;Laerm;48586;50.122;18.972;2023-05-24T08:32:51;56.36;50.17;73.72;;
77135;Laerm;48586;50.122;18.972;2023-05-24T08:34:59;55.14;48.91;63.82;;
77135;Laerm;48586;50.122;18.972;2023-05-24T08:37:04;56.17;48.91;71.49;;
77135;Laerm;48586;50.122;18.972;2023-05-24T08:39:10;54.28;44.76;66.71;;
77135;Laerm;48586;50.122;18.972;2023-05-24T08:41:16;54.39;47.36;68.14;;
77135;Laerm;48586;50.122;18.972;2023-05-24T08:43:22;54.78;46.58;65.19;;
77135;Laerm;48586;50.122;18.972;2023-05-24T08:45:32;54.11;44.98;65.74;;
77135;Laerm;48586;50.122;18.972;2023-05-24T08:47:42;54.46;44.39;73.71;;
77135;Laerm;48586;50.122;18.972;2023-05-24T08:49:49;54.10;46.41;63.07;;
77135;Laerm;48586;50.122;18.972;2023-05-24T08:51:57;53.81;41.16;66.83;;
77135;Laerm;48586;50.122;18.972;2023-05-24T08:54:06;53.59;46.24;62.33;;
77135;Laerm;48586;50.122;18.972;2023-05-24T08:56:17;55.46;46.40;66.69;;
77135;Laerm;48586;50.122;18.972;2023-05-24T08:58:23;52.69;46.99;58.96;;
77135;Laerm;48586;50.122;18.972;2023-05-24T09:00:28;52.51;46.71;59.96;;
77135;Laerm;48586;50.122;18.972;2023-05-24T09:02:34;53.26;45.28;61.19;;
77135;Laerm;48586;50.122;18.972;2023-05-24T09:04:41;52.87;46.45;63.12;;
77135;Laerm;48586;50.122;18.972;2023-05-24T09:06:48;56.70;51.37;70.55;;
77135;Laerm;48586;50.122;18.972;2023-05-24T09:08:55;55.30;50.36;68.21;;
77135;Laerm;48586;50.122;18.972;2023-05-24T09:11:02;56.30;50.64;68.67;;
77135;Laerm;48586;50.122;18.972;2023-05-24T09:13:11;54.76;49.76;65.30;;
77135;Laerm;48586;50.122;18.972;2023-05-24T09:15:20;53.93;47.36;59.65;;
77135;Laerm;48586;50.122;18.972;2023-05-24T09:17:25;53.64;48.76;60.49;;
77135;Laerm;48586;50.122;18.972;2023-05-24T09:19:31;54.49;46.82;71.55;;
77135;Laerm;48586;50.122;18.972;2023-05-24T09:21:35;52.21;45.82;65.12;;
77135;Laerm;48586;50.122;18.972;2023-05-24T09:23:40;52.72;47.02;60.73;;
77135;Laerm;48586;50.122;18.972;2023-05-24T09:25:49;53.91;47.64;64.31;;
77135;Laerm;48586;50.122;18.972;2023-05-24T09:27:53;54.43;49.05;60.05;;
77135;Laerm;48586;50.122;18.972;2023-05-24T09:29:58;53.52;48.60;64.37;;
77135;Laerm;48586;50.122;18.972;2023-05-24T09:32:07;54.67;49.81;65.47;;
77135;Laerm;48586;50.122;18.972;2023-05-24T09:34:14;49.82;42.77;56.82;;
77135;Laerm;48586;50.122;18.972;2023-05-24T09:36:19;52.07;46.02;59.34;;
77135;Laerm;48586;50.122;18.972;2023-05-24T09:38:25;54.54;48.35;67.13;;
77135;Laerm;48586;50.122;18.972;2023-05-24T09:40:30;54.44;45.37;73.38;;
77135;Laerm;48586;50.122;18.972;2023-05-24T09:42:37;54.92;46.24;62.30;;
77135;Laerm;48586;50.122;18.972;2023-05-24T09:44:42;54.72;48.68;68.86;;
77135;Laerm;48586;50.122;18.972;2023-05-24T09:46:47;53.34;44.34;63.06;;
77135;Laerm;48586;50.122;18.972;2023-05-24T09:48:56;51.23;45.02;64.13;;
77135;Laerm;48586;50.122;18.972;2023-05-24T09:51:06;52.39;42.97;65.16;;
77135;Laerm;48586;50.122;18.972;2023-05-24T09:53:17;51.74;42.81;64.13;;
77135;Laerm;48586;50.122;18.972;2023-05-24T09:55:23;55.47;46.49;70.65;;
77135;Laerm;48586;50.122;18.972;2023-05-24T09:57:28;54.54;47.03;69.45;;
77135;Laerm;48586;50.122;18.972;2023-05-24T09:59:39;52.85;44.16;68.40;;
77135;Laerm;48586;50.122;18.972;2023-05-24T10:01:44;70.77;47.21;84.52;;
77135;Laerm;48586;50.122;18.972;2023-05-24T10:03:57;52.32;45.11;65.00;;
77135;Laerm;48586;50.122;18.972;2023-05-24T10:06:04;51.88;43.39;60.61;;
77135;Laerm;48586;50.122;18.972;2023-05-24T10:08:10;53.81;41.79;60.72;;
77135;Laerm;48586;50.122;18.972;2023-05-24T10:10:16;51.67;41.58;59.16;;
77135;Laerm;48586;50.122;18.972;2023-05-24T10:12:21;54.55;46.74;62.15;;
77135;Laerm;48586;50.122;18.972;2023-05-24T10:14:29;54.83;43.04;64.76;;
77135;Laerm;48586;50.122;18.972;2023-05-24T10:16:38;53.20;45.82;59.45;;
77135;Laerm;48586;50.122;18.972;2023-05-24T10:18:42;51.94;46.08;60.65;;
77135;Laerm;48586;50.122;18.972;2023-05-24T10:20:50;52.99;44.06;72.51;;
77135;Laerm;48586;50.122;18.972;2023-05-24T10:22:59;50.50;40.28;64.19;;
77135;Laerm;48586;50.122;18.972;2023-05-24T10:25:10;52.19;40.96;63.72;;
77135;Laerm;48586;50.122;18.972;2023-05-24T10:27:22;53.95;40.78;65.41;;
77135;Laerm;48586;50.122;18.972;2023-05-24T10:29:47;54.45;45.80;65.94;;
77135;Laerm;48586;50.122;18.972;2023-05-24T10:31:58;53.45;45.37;64.52;;
77135;Laerm;48586;50.122;18.972;2023-05-24T10:34:06;54.10;45.01;73.01;;
77135;Laerm;48586;50.122;18.972;2023-05-24T10:36:14;53.23;47.77;61.63;;
77135;Laerm;48586;50.122;18.972;2023-05-24T10:38:22;53.92;48.71;64.43;;
77135;Laerm;48586;50.122;18.972;2023-05-24T10:40:26;55.27;47.72;67.09;;
77135;Laerm;48586;50.122;18.972;2023-05-24T10:42:31;54.16;46.75;63.26;;
77135;Laerm;48586;50.122;18.972;2023-05-24T10:44:51;53.68;44.71;64.62;;
77135;Laerm;48586;50.122;18.972;2023-05-24T10:47:14;52.23;43.68;60.10;;
77135;Laerm;48586;50.122;18.972;2023-05-24T10:49:21;52.69;45.51;62.64;;
77135;Laerm;48586;50.122;18.972;2023-05-24T10:51:34;51.99;43.07;69.40;;
77135;Laerm;48586;50.122;18.972;2023-05-24T10:53:40;51.20;44.09;62.44;;
77135;Laerm;48586;50.122;18.972;2023-05-24T10:55:52;52.26;42.28;68.74;;
77135;Laerm;48586;50.122;18.972;2023-05-24T10:57:57;51.41;45.07;61.13;;
77135;Laerm;48586;50.122;18.972;2023-05-24T11:00:26;51.40;44.08;57.73;;
77135;Laerm;48586;50.122;18.972;2023-05-24T11:02:36;52.36;45.24;61.67;;
77135;Laerm;48586;50.122;18.972;2023-05-24T11:04:45;50.54;41.31;67.08;;
77135;Laerm;48586;50.122;18.972;2023-05-24T11:06:56;49.99;44.21;59.92;;
77135;Laerm;48586;50.122;18.972;2023-05-24T11:09:02;52.28;44.37;61.03;;
77135;Laerm;48586;50.122;18.972;2023-05-24T11:11:10;49.38;42.59;58.88;;
77135;Laerm;48586;50.122;18.972;2023-05-24T11:13:18;51.40;43.62;65.30;;
77135;Laerm;48586;50.122;18.972;2023-05-24T11:15:25;50.35;43.63;60.01;;
77135;Laerm;48586;50.122;18.972;2023-05-24T11:17:29;49.07;42.29;55.74;;
77135;Laerm;48586;50.122;18.972;2023-05-24T11:19:45;49.08;40.99;66.52;;
77135;Laerm;48586;50.122;18.972;2023-05-24T11:21:52;50.37;43.26;64.05;;
77135;Laerm;48586;50.122;18.972;2023-05-24T11:23:59;52.03;42.16;68.06;;
77135;Laerm;48586;50.122;18.972;2023-05-24T11:26:05;50.76;42.23;59.42;;
77135;Laerm;48586;50.122;18.972;2023-05-24T11:28:12;49.27;41.70;57.87;;
77135;Laerm;48586;50.122;18.972;2023-05-24T11:30:17;52.07;38.80;64.00;;
77135;Laerm;48586;50.122;18.972;2023-05-24T11:32:22;50.51;42.27;62.49;;
77135;Laerm;48586;50.122;18.972;2023-05-24T11:34:29;52.37;42.10;70.43;;
77135;Laerm;48586;50.122;18.972;2023-05-24T11:36:36;50.98;38.35;61.86;;
77135;Laerm;48586;50.122;18.972;2023-05-24T11:38:41;52.52;41.35;67.49;;
77135;Laerm;48586;50.122;18.972;2023-05-24T11:40:48;50.44;43.44;62.58;;
77135;Laerm;48586;50.122;18.972;2023-05-24T11:42:52;50.38;40.73;60.70;;
77135;Laerm;48586;50.122;18.972;2023-05-24T11:44:58;50.28;40.67;59.07;;
77135;Laerm;48586;50.122;18.972;2023-05-24T11:47:06;50.96;41.45;62.15;;
77135;Laerm;48586;50.122;18.972;2023-05-24T11:49:13;53.17;42.27;67.30;;
77135;Laerm;48586;50.122;18.972;2023-05-24T11:51:18;49.82;41.34;62.28;;
77135;Laerm;48586;50.122;18.972;2023-05-24T11:53:25;52.65;42.15;64.81;;